Time;durP1;ratioP1;P1;durP2;ratioP2;P2;SDS_P1;SDS_P2;PMS_P1;PMS_P2;Temp;Humidity;BMP_temperature;BMP_pressure;BME280_temperature;BME280_humidity;BME280_pressure;Samples;Min_cycle;Max_cycle;Signal;HPM_P1;HPM_P2
2022/08/08 00:00:45;;;;;;;0.68;0.65;;;19.80;41.30;;;;;;945474;149;27443;-77
2022/08/08 00:03:18;;;;;;;2.15;0.68;;;19.80;41.50;;;;;;948464;147;27445;-77
2022/08/08 00:05:43;;;;;;;1.10;1.05;;;19.80;41.60;;;;;;937601;150;27429;-77
2022/08/08 00:08:31;;;;;;;0.60;0.60;;;19.80;41.70;;;;;;955074;147;27378;-77
2022/08/08 00:11:13;;;;;;;0.68;0.68;;;19.70;41.80;;;;;;955640;147;27320;-77
2022/08/08 00:14:11;;;;;;;0.47;0.47;;;19.70;41.70;;;;;;955308;147;27346;-77
2022/08/08 00:16:47;;;;;;;3.62;0.60;;;19.70;41.70;;;;;;898648;155;27339;-78
2022/08/08 00:19:28;;;;;;;0.57;0.57;;;19.60;41.70;;;;;;929788;149;27447;-78
2022/08/08 00:22:01;;;;;;;0.70;0.70;;;19.60;41.90;;;;;;937951;149;27381;-78
2022/08/08 00:24:27;;;;;;;6.97;1.22;;;19.60;42.00;;;;;;864426;155;27414;-77
2022/08/08 00:26:54;;;;;;;0.53;0.45;;;19.50;42.10;;;;;;916271;152;27364;-77
2022/08/08 00:29:32;;;;;;;1.37;0.62;;;19.50;42.30;;;;;;918934;152;27352;-77
2022/08/08 00:31:59;;;;;;;2.05;0.80;;;19.50;42.40;;;;;;918028;152;27426;-77
2022/08/08 00:37:16;;;;;;;0.70;0.70;;;19.40;42.60;;;;;;918072;152;27453;-77
2022/08/08 00:39:45;;;;;;;0.62;0.62;;;19.40;42.50;;;;;;904437;152;27801;-77
2022/08/08 00:42:42;;;;;;;0.70;0.70;;;19.30;42.70;;;;;;890348;156;27451;-77
2022/08/08 00:45:21;;;;;;;0.50;0.50;;;19.30;42.80;;;;;;896301;155;27971;-77
2022/08/08 00:48:08;;;;;;;0.75;0.68;;;19.20;42.70;;;;;;915554;152;27433;-77
2022/08/08 00:50:36;;;;;;;0.55;0.55;;;19.20;42.80;;;;;;912440;152;27503;-76
2022/08/08 00:53:08;;;;;;;0.72;0.50;;;19.10;42.90;;;;;;914008;152;27383;-77
2022/08/08 00:55:52;;;;;;;2.15;0.75;;;19.10;43.10;;;;;;859605;158;27407;-77
2022/08/08 00:58:25;;;;;;;0.62;0.62;;;19.10;43.10;;;;;;896667;156;27458;-77
2022/08/08 01:01:03;;;;;;;1.35;0.50;;;19.00;43.00;;;;;;893039;159;27563;-77
2022/08/08 01:03:33;;;;;;;1.35;0.93;;;19.00;43.30;;;;;;913334;152;27493;-77
2022/08/08 01:06:24;;;;;;;0.60;0.42;;;19.00;43.00;;;;;;913419;152;27360;-77
2022/08/08 01:09:09;;;;;;;0.60;0.55;;;18.90;43.40;;;;;;913807;152;28014;-77
2022/08/08 01:11:41;;;;;;;2.37;0.70;;;18.90;43.40;;;;;;893563;156;27395;-77
2022/08/08 01:14:26;;;;;;;1.20;0.62;;;18.90;43.50;;;;;;915324;152;27442;-77
2022/08/08 01:17:07;;;;;;;0.57;0.57;;;18.90;43.80;;;;;;889594;157;27479;-77
2022/08/08 01:19:43;;;;;;;0.70;0.50;;;18.90;43.70;;;;;;911593;153;27521;-78
2022/08/08 01:22:21;;;;;;;0.80;0.80;;;18.80;43.80;;;;;;893543;153;27323;-77
2022/08/08 01:25:00;;;;;;;0.60;0.60;;;18.80;43.90;;;;;;894389;156;27516;-77
2022/08/08 01:27:32;;;;;;;1.27;0.82;;;18.70;43.90;;;;;;895472;156;27422;-76
2022/08/08 01:30:37;;;;;;;1.22;0.60;;;18.70;44.00;;;;;;896509;156;27593;-77
2022/08/08 01:33:18;;;;;;;0.78;0.60;;;18.70;44.10;;;;;;895504;156;27534;-78
2022/08/08 01:36:13;;;;;;;0.88;0.78;;;18.60;44.00;;;;;;894988;156;27432;-76
2022/08/08 01:39:07;;;;;;;0.55;0.55;;;18.60;44.20;;;;;;894135;156;27460;-77
2022/08/08 01:41:39;;;;;;;0.40;0.40;;;18.50;44.30;;;;;;895606;156;27478;-77
2022/08/08 01:44:21;;;;;;;0.85;0.82;;;18.40;44.30;;;;;;895256;156;27585;-77
2022/08/08 01:47:15;;;;;;;0.95;0.68;;;18.40;44.60;;;;;;891894;156;27446;-77
2022/08/08 01:50:12;;;;;;;0.98;0.57;;;18.30;44.60;;;;;;895178;156;28049;-77
2022/08/08 01:52:57;;;;;;;0.70;0.70;;;18.30;45.00;;;;;;894784;156;27959;-77
2022/08/08 01:55:27;;;;;;;0.83;0.83;;;18.20;44.70;;;;;;891739;156;28237;-77
2022/08/08 01:58:15;;;;;;;0.62;0.50;;;18.10;44.90;;;;;;893365;156;27530;-77
2022/08/08 02:00:59;;;;;;;0.50;0.50;;;18.10;45.10;;;;;;894933;156;27384;-76
2022/08/08 02:03:44;;;;;;;0.67;0.50;;;18.10;45.20;;;;;;895159;156;27411;-76
2022/08/08 02:06:11;;;;;;;1.37;0.60;;;18.00;45.30;;;;;;896443;156;27540;-77
2022/08/08 02:09:09;;;;;;;0.50;0.50;;;18.00;45.50;;;;;;896272;156;27467;-77
2022/08/08 02:11:37;;;;;;;0.60;0.55;;;17.90;45.60;;;;;;895022;156;27479;-77
2022/08/08 02:14:34;;;;;;;0.57;0.50;;;17.90;45.50;;;;;;894440;156;27502;-77
2022/08/08 02:17:10;;;;;;;0.50;0.50;;;17.80;45.70;;;;;;893463;156;27742;-77
2022/08/08 02:19:39;;;;;;;0.60;0.60;;;17.80;45.80;;;;;;893779;156;27398;-77
2022/08/08 02:22:33;;;;;;;3.00;0.70;;;17.70;45.90;;;;;;893015;156;27366;-77
2022/08/08 02:25:17;;;;;;;0.70;0.70;;;17.70;46.10;;;;;;892023;156;27437;-77
2022/08/08 02:27:44;;;;;;;7.07;0.67;;;17.60;46.00;;;;;;893784;156;27438;-77
2022/08/08 02:30:17;;;;;;;0.50;0.50;;;17.60;46.20;;;;;;891731;156;27294;-77
2022/08/08 02:32:52;;;;;;;1.03;0.70;;;17.60;46.30;;;;;;891596;156;27407;-77
2022/08/08 02:35:34;;;;;;;0.50;0.50;;;17.50;46.40;;;;;;877081;159;27315;-77
2022/08/08 02:38:22;;;;;;;0.60;0.60;;;17.50;46.60;;;;;;903148;155;27493;-77
2022/08/08 02:41:07;;;;;;;0.63;0.50;;;17.50;46.70;;;;;;901211;155;27428;-77
2022/08/08 02:43:49;;;;;;;0.73;0.60;;;17.40;46.70;;;;;;901723;155;27486;-77
2022/08/08 02:46:27;;;;;;;0.60;0.60;;;17.40;46.80;;;;;;902390;155;27913;-77
2022/08/08 02:48:57;;;;;;;0.73;0.70;;;17.30;46.90;;;;;;900934;155;28218;-77
2022/08/08 02:51:23;;;;;;;0.77;0.67;;;17.30;47.10;;;;;;903040;155;27368;-76
2022/08/08 02:54:08;;;;;;;0.70;0.60;;;17.20;47.30;;;;;;901586;155;27334;-75
2022/08/08 02:56:44;;;;;;;0.50;0.50;;;17.20;47.30;;;;;;902457;155;27501;-75
2022/08/08 02:59:32;;;;;;;0.60;0.60;;;17.20;47.40;;;;;;900307;155;27473;-76
2022/08/08 03:02:35;;;;;;;0.77;0.60;;;17.10;47.50;;;;;;901467;155;27400;-76
2022/08/08 03:05:14;;;;;;;0.95;0.60;;;17.10;47.60;;;;;;901173;155;27425;-77
2022/08/08 03:08:15;;;;;;;0.60;0.60;;;17.00;47.60;;;;;;902066;155;27432;-76
2022/08/08 03:11:05;;;;;;;0.33;0.33;;;17.00;47.80;;;;;;902772;155;27408;-76
2022/08/08 03:13:40;;;;;;;0.93;0.93;;;17.00;47.80;;;;;;900379;155;27421;-76
2022/08/08 03:16:13;;;;;;;0.70;0.70;;;17.00;48.00;;;;;;904210;155;27391;-76
2022/08/08 03:18:55;;;;;;;0.50;0.50;;;16.90;48.20;;;;;;912469;153;27382;-76
2022/08/08 03:21:20;;;;;;;0.77;0.60;;;16.90;48.30;;;;;;912430;155;27433;-76
2022/08/08 03:23:47;;;;;;;0.83;0.60;;;16.90;48.30;;;;;;911881;153;27399;-76
2022/08/08 03:26:16;;;;;;;0.53;0.53;;;16.90;48.50;;;;;;910348;153;27497;-76
2022/08/08 03:28:43;;;;;;;0.70;0.70;;;16.90;48.60;;;;;;913230;153;28038;-76
2022/08/08 03:33:54;;;;;;;0.97;0.70;;;16.80;48.80;;;;;;912595;153;27521;-76
2022/08/08 03:36:21;;;;;;;0.53;0.53;;;16.80;48.70;;;;;;912913;153;27436;-76
2022/08/08 03:38:48;;;;;;;3.57;0.67;;;16.80;48.90;;;;;;912389;153;27355;-76
2022/08/08 03:41:14;;;;;;;0.57;0.57;;;16.80;49.00;;;;;;912823;153;27522;-76
2022/08/08 03:43:41;;;;;;;1.43;1.13;;;16.80;49.10;;;;;;912183;153;27485;-76
2022/08/08 03:46:07;;;;;;;0.60;0.60;;;16.70;49.20;;;;;;912374;153;27514;-76
2022/08/08 03:48:34;;;;;;;1.17;0.63;;;16.70;49.30;;;;;;913607;153;27395;-76
2022/08/08 03:51:00;;;;;;;0.70;0.70;;;16.70;49.30;;;;;;910492;153;27391;-76
2022/08/08 03:53:27;;;;;;;3.20;0.60;;;16.70;49.40;;;;;;911730;153;27403;-75
2022/08/08 03:55:54;;;;;;;0.60;0.60;;;16.70;49.50;;;;;;911750;153;27403;-76
2022/08/08 03:58:20;;;;;;;1.27;0.63;;;16.60;49.60;;;;;;912955;153;27407;-76
2022/08/08 04:00:50;;;;;;;0.73;0.70;;;16.60;49.70;;;;;;911806;153;27449;-76
2022/08/08 04:03:16;;;;;;;0.80;0.70;;;16.60;49.80;;;;;;910585;153;27378;-76
2022/08/08 04:05:43;;;;;;;0.50;0.50;;;16.60;49.90;;;;;;912707;153;27396;-76
2022/08/08 04:08:09;;;;;;;1.63;0.70;;;16.60;50.00;;;;;;912872;153;27966;-76
2022/08/08 04:10:36;;;;;;;0.73;0.73;;;16.60;50.10;;;;;;912522;153;27537;-76
2022/08/08 04:13:02;;;;;;;1.23;0.70;;;16.50;50.20;;;;;;912319;153;27508;-76
2022/08/08 04:15:29;;;;;;;0.67;0.60;;;16.50;50.30;;;;;;912969;153;27370;-76
2022/08/08 04:17:56;;;;;;;0.80;0.80;;;16.50;50.30;;;;;;911615;153;27512;-76
2022/08/08 04:20:22;;;;;;;0.77;0.70;;;16.50;50.40;;;;;;911395;153;27402;-76
2022/08/08 04:22:49;;;;;;;4.77;1.00;;;16.50;50.50;;;;;;913405;153;27486;-76
2022/08/08 04:25:15;;;;;;;1.13;1.03;;;16.50;50.60;;;;;;911970;153;28424;-76
2022/08/08 04:27:42;;;;;;;0.90;0.90;;;16.50;50.60;;;;;;912173;153;27419;-76
2022/08/08 04:30:09;;;;;;;1.30;0.90;;;16.50;50.70;;;;;;914060;153;27324;-76
2022/08/08 04:32:35;;;;;;;1.07;1.03;;;16.50;50.80;;;;;;912757;153;27382;-76
2022/08/08 04:35:02;;;;;;;1.43;1.27;;;16.50;50.80;;;;;;910570;153;27441;-76
2022/08/08 04:37:28;;;;;;;0.83;0.83;;;16.50;51.00;;;;;;913737;153;27422;-76
2022/08/08 04:39:55;;;;;;;0.70;0.70;;;16.50;50.90;;;;;;914046;153;27941;-76
2022/08/08 04:42:22;;;;;;;1.53;0.80;;;16.50;50.90;;;;;;911838;155;27406;-76
2022/08/08 04:44:48;;;;;;;1.37;0.70;;;16.60;51.00;;;;;;913721;153;27392;-75
2022/08/08 04:47:15;;;;;;;0.80;0.80;;;16.60;51.00;;;;;;913734;153;27461;-76
2022/08/08 04:49:41;;;;;;;0.80;0.80;;;16.60;51.00;;;;;;912697;153;27431;-75
2022/08/08 04:52:08;;;;;;;0.70;0.70;;;16.70;51.00;;;;;;913286;153;28405;-76
2022/08/08 04:54:34;;;;;;;0.57;0.57;;;16.70;51.00;;;;;;910841;153;27497;-76
2022/08/08 04:57:01;;;;;;;0.63;0.63;;;16.80;51.00;;;;;;912933;153;27391;-76
2022/08/08 04:59:28;;;;;;;1.80;0.80;;;16.80;51.00;;;;;;912638;153;27374;-76
2022/08/08 05:01:54;;;;;;;0.82;0.80;;;16.90;51.10;;;;;;912399;153;28123;-76
2022/08/08 05:04:21;;;;;;;1.70;0.70;;;17.00;51.20;;;;;;912940;153;27447;-76
2022/08/08 05:06:47;;;;;;;0.80;0.80;;;17.10;51.40;;;;;;912726;153;27377;-76
2022/08/08 05:09:14;;;;;;;0.80;0.78;;;17.30;51.70;;;;;;912469;153;27403;-76
2022/08/08 05:11:41;;;;;;;0.65;0.62;;;17.60;52.20;;;;;;912484;153;27392;-76
2022/08/08 05:14:07;;;;;;;1.00;0.55;;;18.10;52.60;;;;;;913154;153;27422;-76
2022/08/08 05:16:34;;;;;;;0.68;0.68;;;18.60;52.60;;;;;;910845;153;27944;-76
2022/08/08 05:19:00;;;;;;;0.70;0.70;;;19.20;52.50;;;;;;914833;153;27516;-76
2022/08/08 05:21:27;;;;;;;0.72;0.68;;;19.90;52.10;;;;;;911694;153;27377;-76
2022/08/08 05:23:54;;;;;;;0.50;0.50;;;20.60;51.50;;;;;;912675;153;27386;-76
2022/08/08 05:26:23;;;;;;;6.05;1.25;;;21.30;50.90;;;;;;910899;155;27395;-77
2022/08/08 05:28:49;;;;;;;0.50;0.50;;;22.00;50.20;;;;;;913376;153;27541;-76
2022/08/08 05:31:16;;;;;;;0.47;0.40;;;22.80;49.50;;;;;;911468;153;27391;-77
2022/08/08 05:33:43;;;;;;;1.37;0.90;;;23.50;48.50;;;;;;911446;155;27384;-77
2022/08/08 05:36:10;;;;;;;0.50;0.40;;;24.10;47.50;;;;;;912481;153;27473;-77
2022/08/08 05:38:36;;;;;;;0.75;0.40;;;24.70;46.60;;;;;;912358;153;27939;-77
2022/08/08 05:41:02;;;;;;;0.50;0.50;;;25.30;45.80;;;;;;912327;153;27451;-77
2022/08/08 05:43:29;;;;;;;1.57;0.60;;;25.80;45.10;;;;;;911904;153;28753;-77
2022/08/08 05:45:56;;;;;;;1.20;0.40;;;26.30;44.50;;;;;;910561;153;27468;-77
2022/08/08 05:48:22;;;;;;;0.68;0.60;;;26.80;44.00;;;;;;914281;153;27470;-77
2022/08/08 05:50:49;;;;;;;0.90;0.60;;;27.30;43.50;;;;;;910769;153;27463;-77
2022/08/08 05:53:15;;;;;;;0.62;0.50;;;27.80;43.10;;;;;;914098;153;27411;-77
2022/08/08 05:55:42;;;;;;;0.50;0.50;;;28.30;42.50;;;;;;912014;155;28116;-77
2022/08/08 05:58:08;;;;;;;0.85;0.57;;;28.80;41.70;;;;;;913029;153;27453;-77
2022/08/08 06:00:35;;;;;;;0.65;0.53;;;29.30;41.00;;;;;;912859;153;27463;-77
2022/08/08 06:03:10;;;;;;;0.53;0.53;;;29.70;40.20;;;;;;913093;153;27388;-77
2022/08/08 06:05:40;;;;;;;0.78;0.78;;;30.10;39.80;;;;;;912385;150;27524;-77
2022/08/08 06:08:06;;;;;;;0.80;0.80;;;30.50;39.30;;;;;;911344;153;27361;-77
2022/08/08 06:10:33;;;;;;;1.70;0.50;;;30.80;38.80;;;;;;912949;153;27387;-77
2022/08/08 06:13:02;;;;;;;0.65;0.57;;;31.20;38.20;;;;;;912057;153;27391;-77
2022/08/08 06:15:29;;;;;;;1.65;0.45;;;31.60;37.90;;;;;;913179;153;27436;-77
2022/08/08 06:17:55;;;;;;;0.68;0.68;;;31.90;37.30;;;;;;914159;153;27475;-77
2022/08/08 06:20:22;;;;;;;0.88;0.45;;;32.20;36.80;;;;;;912322;153;27383;-78
2022/08/08 06:22:49;;;;;;;1.47;0.68;;;32.50;36.50;;;;;;911980;153;27486;-78
2022/08/08 06:25:15;;;;;;;2.12;0.95;;;32.90;36.30;;;;;;914540;153;27367;-78
2022/08/08 06:27:47;;;;;;;0.50;0.50;;;33.20;35.90;;;;;;911738;153;27491;-78
2022/08/08 06:30:14;;;;;;;1.05;0.70;;;33.70;35.80;;;;;;913537;153;27589;-78
2022/08/08 06:32:46;;;;;;;1.57;0.72;;;34.20;35.30;;;;;;914236;153;27318;-78
2022/08/08 06:35:13;;;;;;;0.37;0.37;;;34.70;34.70;;;;;;914454;153;27495;-78
2022/08/08 06:37:39;;;;;;;2.08;0.60;;;35.20;34.20;;;;;;912663;153;27393;-78
2022/08/08 06:40:06;;;;;;;1.07;0.47;;;35.70;33.80;;;;;;912481;153;26351;-78
2022/08/08 06:42:33;;;;;;;0.42;0.20;;;36.10;33.20;;;;;;911151;153;26428;-78
2022/08/08 06:44:59;;;;;;;1.55;0.40;;;36.60;32.70;;;;;;914119;153;26322;-78
2022/08/08 06:47:26;;;;;;;0.30;0.30;;;37.00;31.70;;;;;;913460;153;26266;-78
2022/08/08 06:49:52;;;;;;;0.93;0.47;;;37.40;31.40;;;;;;912851;153;27482;-78
2022/08/08 06:52:19;;;;;;;0.60;0.57;;;37.60;31.00;;;;;;912314;153;26327;-78
2022/08/08 06:54:45;;;;;;;0.53;0.40;;;37.90;30.70;;;;;;913285;153;28571;-78
2022/08/08 06:57:12;;;;;;;0.62;0.42;;;38.20;30.00;;;;;;913346;153;26275;-78
2022/08/08 06:59:39;;;;;;;0.72;0.62;;;38.50;30.00;;;;;;913672;153;26407;-78
2022/08/08 07:02:05;;;;;;;1.47;0.40;;;38.70;29.90;;;;;;912217;153;26392;-78
2022/08/08 07:04:37;;;;;;;1.35;0.40;;;39.00;29.30;;;;;;912152;153;26323;-78
2022/08/08 07:07:04;;;;;;;0.45;0.45;;;39.20;29.20;;;;;;913578;153;26383;-78
2022/08/08 07:09:37;;;;;;;0.50;0.40;;;39.50;28.90;;;;;;911685;153;27364;-78
2022/08/08 07:12:02;;;;;;;1.95;0.53;;;39.70;28.50;;;;;;912245;154;26318;-79
2022/08/08 07:14:35;;;;;;;0.55;0.47;;;39.90;28.30;;;;;;913941;153;26417;-79
2022/08/08 07:17:05;;;;;;;0.35;0.35;;;40.10;28.20;;;;;;905587;155;26220;-79
2022/08/08 07:19:37;;;;;;;0.80;0.40;;;40.40;28.00;;;;;;912339;153;26294;-79
2022/08/08 07:22:03;;;;;;;0.60;0.30;;;40.60;27.80;;;;;;905688;154;26324;-78
2022/08/08 07:24:42;;;;;;;0.50;0.50;;;40.90;27.80;;;;;;915419;152;26408;-79
2022/08/08 07:27:08;;;;;;;1.45;0.40;;;41.30;27.50;;;;;;891492;156;27030;-79
2022/08/08 07:29:36;;;;;;;0.60;0.60;;;41.70;27.30;;;;;;908281;153;26309;-79
2022/08/08 07:32:02;;;;;;;0.60;0.60;;;42.10;26.80;;;;;;909838;154;26249;-79
2022/08/08 07:34:28;;;;;;;1.50;0.50;;;42.30;26.30;;;;;;907507;154;26357;-77
2022/08/08 07:36:55;;;;;;;1.55;0.40;;;42.60;26.10;;;;;;910384;154;26320;-78
2022/08/08 07:39:22;;;;;;;0.50;0.50;;;42.70;25.80;;;;;;906281;154;26389;-76
2022/08/08 07:41:48;;;;;;;1.37;0.50;;;42.90;25.70;;;;;;907179;154;26331;-78
2022/08/08 07:44:14;;;;;;;0.70;0.65;;;43.10;25.60;;;;;;907295;154;26688;-78
2022/08/08 07:46:41;;;;;;;0.90;0.47;;;43.30;25.40;;;;;;908343;154;26399;-77
2022/08/08 07:49:08;;;;;;;0.40;0.40;;;43.60;25.30;;;;;;908539;154;26343;-79
2022/08/08 07:51:34;;;;;;;0.98;0.47;;;43.80;25.10;;;;;;909640;154;26409;-78
2022/08/08 07:54:19;;;;;;;0.95;0.50;;;44.10;24.80;;;;;;907780;154;26304;-77
2022/08/08 07:56:51;;;;;;;0.47;0.47;;;44.40;24.50;;;;;;906489;154;26278;-78
2022/08/08 07:59:18;;;;;;;0.98;0.68;;;44.70;24.50;;;;;;905642;154;26310;-77
2022/08/08 08:01:45;;;;;;;0.98;0.50;;;44.90;24.20;;;;;;908579;154;27902;-78
2022/08/08 08:04:12;;;;;;;0.30;0.30;;;45.10;23.90;;;;;;906120;154;26405;-78
2022/08/08 08:06:38;;;;;;;0.70;0.45;;;45.30;23.60;;;;;;906868;154;26707;-77
2022/08/08 08:09:07;;;;;;;0.42;0.42;;;45.50;23.50;;;;;;907842;154;26471;-78
2022/08/08 08:11:34;;;;;;;0.30;0.30;;;45.60;23.40;;;;;;897035;154;26351;-78
2022/08/08 08:14:07;;;;;;;0.35;0.35;;;45.80;23.30;;;;;;907385;152;26292;-79
2022/08/08 08:16:33;;;;;;;2.15;0.60;;;46.00;23.10;;;;;;908887;154;26332;-78
2022/08/08 08:19:05;;;;;;;1.05;0.57;;;46.20;23.00;;;;;;909234;154;26312;-77
2022/08/08 08:21:37;;;;;;;1.15;0.62;;;46.40;22.70;;;;;;911174;153;27934;-79
2022/08/08 08:24:04;;;;;;;0.50;0.50;;;46.60;22.50;;;;;;912833;153;26389;-76
2022/08/08 08:26:30;;;;;;;0.55;0.42;;;46.70;22.40;;;;;;912672;153;26331;-76
2022/08/08 08:28:57;;;;;;;0.40;0.40;;;46.90;22.30;;;;;;912703;153;28729;-76
2022/08/08 08:31:24;;;;;;;2.45;0.50;;;47.00;22.10;;;;;;910758;153;26275;-75
2022/08/08 08:33:50;;;;;;;0.40;0.40;;;47.10;22.10;;;;;;910830;153;26331;-76
2022/08/08 08:36:20;;;;;;;0.53;0.40;;;47.20;22.00;;;;;;911241;153;26279;-76
2022/08/08 08:38:46;;;;;;;0.80;0.80;;;47.30;22.00;;;;;;913042;153;26355;-77
2022/08/08 08:41:13;;;;;;;0.53;0.53;;;47.40;21.80;;;;;;912046;153;26319;-76
2022/08/08 08:43:39;;;;;;;0.80;0.40;;;47.60;21.50;;;;;;912493;153;26295;-75
2022/08/08 08:46:09;;;;;;;1.07;0.55;;;47.70;21.50;;;;;;912165;153;26401;-77
2022/08/08 08:48:35;;;;;;;0.85;0.55;;;47.80;21.40;;;;;;913928;153;26433;-76
2022/08/08 08:51:02;;;;;;;0.40;0.40;;;47.90;21.20;;;;;;912316;153;26382;-75
2022/08/08 08:53:29;;;;;;;1.40;0.50;;;48.00;21.20;;;;;;911973;153;26331;-76
2022/08/08 08:55:55;;;;;;;0.37;0.20;;;48.00;21.20;;;;;;912829;153;26314;-77
2022/08/08 08:58:24;;;;;;;0.30;0.30;;;48.00;21.10;;;;;;912430;153;26296;-75
2022/08/08 09:00:51;;;;;;;0.47;0.47;;;48.10;21.00;;;;;;911345;153;26335;-76
2022/08/08 09:03:18;;;;;;;0.62;0.40;;;48.10;20.90;;;;;;912126;153;26428;-76
2022/08/08 09:05:44;;;;;;;0.68;0.60;;;48.10;20.60;;;;;;911099;153;26319;-75
2022/08/08 09:08:11;;;;;;;1.98;0.40;;;48.00;21.20;;;;;;910951;153;26712;-75
2022/08/08 09:10:40;;;;;;;0.33;0.28;;;48.00;20.70;;;;;;910772;153;26307;-76
2022/08/08 09:13:05;;;;;;;0.45;0.42;;;48.10;20.60;;;;;;912506;153;26274;-77
2022/08/08 09:15:31;;;;;;;3.58;0.62;;;48.10;20.60;;;;;;913453;153;26299;-77
2022/08/08 09:17:57;;;;;;;0.55;0.47;;;48.10;20.50;;;;;;911608;153;26291;-76
2022/08/08 09:20:26;;;;;;;0.90;0.47;;;48.10;20.60;;;;;;911204;153;26336;-76
2022/08/08 09:22:53;;;;;;;1.20;0.60;;;48.20;20.60;;;;;;906910;154;26301;-77
2022/08/08 09:25:19;;;;;;;0.93;0.37;;;48.30;20.50;;;;;;908944;154;26292;-77
2022/08/08 09:27:46;;;;;;;2.22;0.93;;;48.30;20.30;;;;;;907756;154;26343;-76
2022/08/08 09:30:16;;;;;;;0.82;0.70;;;48.30;20.40;;;;;;907860;154;26300;-77
2022/08/08 09:32:54;;;;;;;0.50;0.45;;;48.40;20.50;;;;;;907969;154;26388;-76
2022/08/08 09:35:27;;;;;;;0.80;0.80;;;48.40;20.40;;;;;;908831;153;26248;-76
2022/08/08 09:37:48;;;;;;;0.37;0.37;;;48.40;20.30;;;;;;908076;154;26441;-77
2022/08/08 09:40:14;;;;;;;0.25;0.25;;;48.30;20.00;;;;;;908968;154;26332;-75
2022/08/08 09:42:41;;;;;;;0.80;0.70;;;48.20;20.20;;;;;;907991;154;26303;-76
2022/08/08 09:45:07;;;;;;;1.47;0.72;;;48.10;20.10;;;;;;907621;154;26304;-76
2022/08/08 09:47:37;;;;;;;0.93;0.65;;;48.00;20.10;;;;;;906758;154;26335;-77
2022/08/08 09:50:03;;;;;;;0.45;0.42;;;48.00;20.00;;;;;;905823;154;26311;-77
2022/08/08 09:52:30;;;;;;;0.90;0.42;;;47.80;20.00;;;;;;907471;153;26360;-75
2022/08/08 09:54:57;;;;;;;4.58;0.72;;;47.70;20.00;;;;;;905276;154;26509;-76
2022/08/08 09:57:38;;;;;;;0.53;0.47;;;47.50;20.10;;;;;;907502;154;27894;-76
2022/08/08 10:00:04;;;;;;;0.45;0.45;;;47.30;19.90;;;;;;907835;154;26289;-77
2022/08/08 10:02:33;;;;;;;0.70;0.35;;;47.00;20.00;;;;;;906940;152;26295;-77
2022/08/08 10:05:00;;;;;;;0.42;0.40;;;46.70;20.00;;;;;;908060;154;26429;-75
2022/08/08 10:07:27;;;;;;;1.40;0.60;;;46.30;20.20;;;;;;907343;154;26272;-75
2022/08/08 10:09:54;;;;;;;0.45;0.45;;;45.80;20.10;;;;;;908269;154;26346;-76
2022/08/08 10:12:20;;;;;;;1.77;0.45;;;45.30;20.20;;;;;;905778;154;26292;-75
2022/08/08 10:14:47;;;;;;;0.68;0.40;;;44.80;20.20;;;;;;908179;154;26388;-76
2022/08/08 10:17:13;;;;;;;0.57;0.57;;;44.30;20.30;;;;;;909346;154;26381;-76
2022/08/08 10:19:40;;;;;;;0.98;0.55;;;43.90;20.50;;;;;;907998;154;26742;-75
2022/08/08 10:22:07;;;;;;;0.90;0.70;;;43.40;20.70;;;;;;905525;154;26348;-76
2022/08/08 10:24:33;;;;;;;0.78;0.40;;;43.00;21.00;;;;;;907892;154;26360;-77
2022/08/08 10:27:00;;;;;;;0.37;0.37;;;42.50;20.80;;;;;;907741;153;27477;-77
2022/08/08 10:29:38;;;;;;;0.57;0.40;;;42.00;20.90;;;;;;908340;154;26308;-77
2022/08/08 10:34:49;;;;;;;1.17;0.47;;;41.00;21.10;;;;;;909193;154;26505;-76
2022/08/08 10:37:16;;;;;;;0.60;0.60;;;40.40;21.40;;;;;;908592;153;27469;-75
2022/08/08 10:39:43;;;;;;;1.95;0.40;;;39.90;21.50;;;;;;906405;154;27416;-75
2022/08/08 10:42:09;;;;;;;0.45;0.45;;;39.40;21.80;;;;;;905690;154;27539;-77
2022/08/08 10:44:39;;;;;;;0.37;0.37;;;38.90;22.10;;;;;;908142;154;27427;-75
2022/08/08 10:47:14;;;;;;;1.27;0.80;;;38.50;22.60;;;;;;906439;154;27401;-75
2022/08/08 10:49:40;;;;;;;0.60;0.60;;;38.10;22.50;;;;;;908306;154;27409;-75
2022/08/08 10:52:07;;;;;;;1.37;0.60;;;37.70;22.80;;;;;;905798;154;27398;-75
2022/08/08 10:54:34;;;;;;;1.17;0.50;;;37.40;22.90;;;;;;908212;153;27395;-77
2022/08/08 10:57:00;;;;;;;0.60;0.30;;;37.10;23.10;;;;;;908849;154;27737;-78
2022/08/08 10:59:27;;;;;;;3.22;0.80;;;36.80;23.20;;;;;;908043;154;27389;-76
2022/08/08 11:01:53;;;;;;;0.70;0.70;;;36.50;23.20;;;;;;908986;154;27296;-76
2022/08/08 11:04:20;;;;;;;0.50;0.50;;;36.20;23.30;;;;;;908378;154;27405;-76
2022/08/08 11:06:47;;;;;;;0.62;0.62;;;35.90;23.40;;;;;;909452;154;27415;-79
2022/08/08 11:09:13;;;;;;;5.90;1.20;;;35.70;23.70;;;;;;909589;154;27407;-77
2022/08/08 11:11:42;;;;;;;0.37;0.37;;;35.50;24.10;;;;;;907035;153;27412;-77
2022/08/08 11:14:09;;;;;;;1.27;0.80;;;35.20;24.20;;;;;;908368;154;27374;-78
2022/08/08 11:16:35;;;;;;;0.57;0.57;;;35.20;24.50;;;;;;908232;154;27417;-79
2022/08/08 11:19:02;;;;;;;0.40;0.40;;;35.10;24.50;;;;;;907315;154;27404;-77
2022/08/08 11:21:33;;;;;;;0.90;0.80;;;34.90;24.30;;;;;;907316;154;27399;-78
2022/08/08 11:23:58;;;;;;;0.70;0.50;;;34.80;24.50;;;;;;912476;153;27522;-77
2022/08/08 11:26:24;;;;;;;0.78;0.50;;;34.70;24.60;;;;;;911953;153;27348;-79
2022/08/08 11:28:51;;;;;;;1.42;0.50;;;34.60;24.80;;;;;;911365;153;27428;-79
2022/08/08 11:31:18;;;;;;;0.60;0.60;;;34.50;24.80;;;;;;910271;153;27415;-77
2022/08/08 11:33:51;;;;;;;0.50;0.50;;;34.50;24.90;;;;;;910300;153;27373;-77
2022/08/08 11:36:16;;;;;;;0.60;0.40;;;34.40;25.00;;;;;;914572;153;27494;-77
2022/08/08 11:38:43;;;;;;;0.42;0.40;;;34.40;25.20;;;;;;911349;153;27415;-77
2022/08/08 11:41:09;;;;;;;0.60;0.60;;;34.40;25.30;;;;;;909460;153;27430;-78
2022/08/08 11:43:36;;;;;;;0.60;0.60;;;34.40;25.40;;;;;;911905;151;27400;-77
2022/08/08 11:46:03;;;;;;;0.80;0.80;;;34.40;25.30;;;;;;911792;151;27400;-77
2022/08/08 11:48:29;;;;;;;0.60;0.50;;;34.40;25.40;;;;;;912594;153;26298;-77
2022/08/08 11:50:56;;;;;;;0.70;0.70;;;34.30;25.40;;;;;;911525;153;27395;-79
2022/08/08 11:53:22;;;;;;;3.10;0.80;;;34.30;25.60;;;;;;913815;150;27414;-78
2022/08/08 11:55:49;;;;;;;0.80;0.80;;;34.20;25.40;;;;;;912891;153;27442;-78
2022/08/08 11:58:16;;;;;;;0.65;0.65;;;34.10;26.00;;;;;;912696;153;27391;-77
2022/08/08 12:00:51;;;;;;;0.98;0.60;;;34.10;25.60;;;;;;911707;153;27461;-78
2022/08/08 12:03:27;;;;;;;0.42;0.42;;;34.00;25.60;;;;;;911730;153;27479;-79
2022/08/08 12:05:53;;;;;;;0.70;0.47;;;33.90;25.60;;;;;;910102;153;27419;-78
2022/08/08 12:08:29;;;;;;;0.57;0.57;;;33.80;25.80;;;;;;911154;153;27493;-77
2022/08/08 12:10:56;;;;;;;0.85;0.55;;;33.70;25.90;;;;;;912046;153;27336;-77
2022/08/08 12:13:22;;;;;;;0.90;0.70;;;33.70;25.80;;;;;;911120;153;27415;-77
2022/08/08 12:15:49;;;;;;;0.88;0.80;;;33.60;25.80;;;;;;911393;153;27406;-77
2022/08/08 12:18:18;;;;;;;0.62;0.62;;;33.50;25.90;;;;;;911440;153;27420;-79
2022/08/08 12:20:45;;;;;;;0.62;0.62;;;33.50;26.00;;;;;;909926;153;27430;-77
2022/08/08 12:23:12;;;;;;;0.65;0.62;;;33.40;26.10;;;;;;910947;153;27528;-77
2022/08/08 12:25:38;;;;;;;1.35;0.60;;;33.30;26.00;;;;;;907300;154;27798;-78
2022/08/08 12:28:14;;;;;;;1.05;0.80;;;33.20;26.00;;;;;;908978;154;27385;-77
2022/08/08 12:33:18;;;;;;;1.10;0.68;;;33.20;26.30;;;;;;972194;145;37026;-76
2022/08/08 12:35:44;;;;;;;1.70;0.65;;;33.10;26.50;;;;;;953974;146;27351;-77
2022/08/08 12:38:12;;;;;;;1.10;0.50;;;33.10;26.50;;;;;;952057;146;27403;-78
2022/08/08 12:40:46;;;;;;;1.02;0.80;;;33.00;26.40;;;;;;950352;149;27370;-76
2022/08/08 12:43:14;;;;;;;0.45;0.45;;;33.00;26.50;;;;;;946179;151;27325;-76
2022/08/08 12:45:39;;;;;;;0.45;0.45;;;33.00;26.50;;;;;;945945;151;27301;-77
2022/08/08 12:48:06;;;;;;;0.93;0.62;;;33.00;27.10;;;;;;946168;151;27394;-76
2022/08/08 12:50:42;;;;;;;0.85;0.70;;;33.00;26.60;;;;;;945711;151;27340;-77
2022/08/08 12:53:17;;;;;;;0.70;0.50;;;33.00;27.00;;;;;;946261;149;27360;-77
2022/08/08 12:55:53;;;;;;;0.70;0.70;;;33.00;26.50;;;;;;944853;148;27332;-76
2022/08/08 12:58:19;;;;;;;0.75;0.47;;;32.90;26.50;;;;;;946122;151;27405;-76
2022/08/08 13:00:46;;;;;;;0.40;0.40;;;32.90;26.50;;;;;;946538;151;27300;-76
2022/08/08 13:03:13;;;;;;;0.50;0.50;;;32.90;26.50;;;;;;946737;151;27280;-76
2022/08/08 13:05:39;;;;;;;1.85;0.85;;;32.90;26.60;;;;;;944782;148;27433;-77
2022/08/08 13:08:06;;;;;;;0.78;0.70;;;32.90;26.60;;;;;;946158;148;27338;-76
2022/08/08 13:10:34;;;;;;;1.32;0.55;;;32.90;26.70;;;;;;944744;151;27299;-76
2022/08/08 13:13:02;;;;;;;0.65;0.62;;;32.90;26.60;;;;;;946838;150;27277;-75
2022/08/08 13:15:28;;;;;;;1.30;0.62;;;32.90;26.50;;;;;;945771;151;27498;-76